Address 0x5d9cc0a84487fa5c0a98aaaa679fdff121494d3c

 
 
Txn Hash Method
Block
From
To
Value [Txn Fee]
0x1fa32d08e05c967f8afe58e54bbe856f2a82ea1811badb70ec55cbb076d0fb67Transfer96642442021-08-01 17:43:3855 days 20 hrs ago0x5d9cc0a84487fa5c0a98aaaa679fdff121494d3cOUT0x2d069df8130ee8fd3edcd07ab48c0ada380332980.024082139449938 BNB0.000105
0xae0dffa7ca63f6e0afb52a8274315d0535522ea8873850151387d5b3a3b36969Transfer96642122021-08-01 17:42:0255 days 20 hrs ago0x5d9cc0a84487fa5c0a98aaaa679fdff121494d3cOUT0xf2db1f2eb7381c32d6256dd1780abb70a1e1a8190.004712313860208 BNB0.000105
0x3393d0064a7256f3a18cb83d7f0a51c6a7ea7fd793c260a64a0189487abef44aSwap Exact Token...96641812021-08-01 17:40:2955 days 20 hrs ago0x5d9cc0a84487fa5c0a98aaaa679fdff121494d3cOUT PancakeSwap: Router v20 BNB0.00604709
0x17f866bec94beeabd50c049b0cd6cff93b5ed3ff8c043a112ae4cc5191cbe115Swap Exact Token...96641422021-08-01 17:38:3255 days 20 hrs ago0x5d9cc0a84487fa5c0a98aaaa679fdff121494d3cOUT PancakeSwap: Router0 BNB0.006015695
0x3da7a754c2ed0f79fe1528dc63f5f85a8733043433846e04095182fc5e98b6b3Swap Exact Token...96641132021-08-01 17:37:0355 days 20 hrs ago0x5d9cc0a84487fa5c0a98aaaa679fdff121494d3cOUT PancakeSwap: Router v20 BNB0.001246655
0x769b8bf62d530c92f0e2800c55f38c1f311a971dc31735f80381576151ed3713Approve96641052021-08-01 17:36:3955 days 20 hrs ago0x5d9cc0a84487fa5c0a98aaaa679fdff121494d3cOUT XBN Finance: XBN Token0 BNB0.0002358
0xfd959a1180590b900ac96351e7242f0dd7ce7317643d1621f1678745fc3f322dTransfer96638742021-08-01 17:25:0655 days 20 hrs ago0x624f5ac3fae21ee5c43b360f35b450d0debc691f IN 0x5d9cc0a84487fa5c0a98aaaa679fdff121494d3c0.000511042154401 BNB0.000105
0x022cfdc1886e2e2dee73001cc4be3abd1223b29d77412422780b8bf8dff00e6aTransfer96638612021-08-01 17:24:2755 days 20 hrs ago0xbd31a1222b73fc1aa6eb8f1fd4d22d1ed78b1d01 IN 0x5d9cc0a84487fa5c0a98aaaa679fdff121494d3c0.000665717061479 BNB0.000105
0x2bee8f065a62bd690ddecc374ce379435e4fa69acb2e05380dadbbe6e496c1e6Transfer96638452021-08-01 17:23:3955 days 20 hrs ago0x7a3d7e1f4a88fd3ddb788a53e0d228494c50e7c4 IN 0x5d9cc0a84487fa5c0a98aaaa679fdff121494d3c0.000620718447105 BNB0.000105
0xadf79d5b900090231cf6b1f23504e79b72e4f7634acf5cebdd2f9282fbff4393Transfer96637672021-08-01 17:19:4555 days 20 hrs ago0xf2db1f2eb7381c32d6256dd1780abb70a1e1a819 IN 0x5d9cc0a84487fa5c0a98aaaa679fdff121494d3c0.0050518635135 BNB0.000105
0xeeaa08ce068c08220253526220e7db2dd5554569ac8c97f83792cd0d152e6019Transfer77467512021-05-26 13:56:02123 days 5 mins ago0x5d9cc0a84487fa5c0a98aaaa679fdff121494d3cOUT0x7a3d7e1f4a88fd3ddb788a53e0d228494c50e7c40.055287111572391 BNB0.000105
0x7c6dc3b63110555a82abe497039562f9f6816948f5e8dcfa24ca50b45c7f21f6Swap Exact Token...77467252021-05-26 13:54:39123 days 6 mins ago0x5d9cc0a84487fa5c0a98aaaa679fdff121494d3cOUT PancakeSwap: Router v20 BNB0.00516174
0x37d8b954f3813b0c3648dd09e83e98715aa37b7b3b2a39469a83464917847279Transfer77466582021-05-26 13:50:30123 days 10 mins ago0x7a3d7e1f4a88fd3ddb788a53e0d228494c50e7c4 IN 0x5d9cc0a84487fa5c0a98aaaa679fdff121494d3c0.005521976783067 BNB0.000105
0xb5d98b9e511ba3addcbfd2b21cb2ff3fdcf8e09ee7d9c28bdda80fae2447b517Transfer76637932021-05-23 16:30:03125 days 21 hrs ago0x5d9cc0a84487fa5c0a98aaaa679fdff121494d3cOUT0x7a3d7e1f4a88fd3ddb788a53e0d228494c50e7c40.00108519103601 BNB0.000105
0xdf7d0c1b251e5a50e1a4cca8d3f4426a9dd619bb45680e68d42760e1754ee88eTransfer76265102021-05-22 9:20:17127 days 4 hrs ago0x5d9cc0a84487fa5c0a98aaaa679fdff121494d3cOUT PancakeTools: TCake Token0 BNB0.00026157
0x78a1c162679d8829bacd23f8bcf532110205b76d68d4aabb1768f018676da9d4Transfer76264802021-05-22 9:18:47127 days 4 hrs ago0x5d9cc0a84487fa5c0a98aaaa679fdff121494d3cOUT XBN Finance: XBN Token0 BNB0.000298465
0x0170744272d11ef83fbf4f2d370e08bd8418550c20ab23c548810c58a12492ebApprove76264272021-05-22 9:16:08127 days 4 hrs ago0x5d9cc0a84487fa5c0a98aaaa679fdff121494d3cOUT Safemoon Protocol: SAFEMOON Token0 BNB0.00022274
0x1d0b896f901f7b5ccadeb904379cd105ea263386a52e7fd0d0aa388797bc0051Transfer76263892021-05-22 9:14:14127 days 4 hrs ago0x7a3d7e1f4a88fd3ddb788a53e0d228494c50e7c4 IN 0x5d9cc0a84487fa5c0a98aaaa679fdff121494d3c0.002365534256934 BNB0.000105
0xa3264a5d7ca1d616ccb0992c2fd986c915f230ffa9898a54e9f1368654b34640Transfer72141342021-05-07 12:39:06142 days 1 hr ago0x5d9cc0a84487fa5c0a98aaaa679fdff121494d3cOUT0x2d069df8130ee8fd3edcd07ab48c0ada380332980.124653540798254 BNB0.000105
0xea8883ed4c525b614fa733652e174a52ec19a05f650d7a5f3426e18c8a3af70aSwap Exact Token...72141002021-05-07 12:37:19142 days 1 hr ago0x5d9cc0a84487fa5c0a98aaaa679fdff121494d3cOUT PancakeSwap: Router0 BNB0.00417332
0xf4dfe059a7255d73cf7ed12ea8ae9a521aaef60c9649c610c2815bd473544e34Approve72140032021-05-07 12:32:22142 days 1 hr ago0x5d9cc0a84487fa5c0a98aaaa679fdff121494d3cOUT Safemoon Protocol: SAFEMOON Token0 BNB0.00022274
0xd04cf51898a8a637b9f6c26915287818a8307f34eb1673d3a93e4505a352e931Swap Exact Token...72139572021-05-07 12:29:51142 days 1 hr ago0x5d9cc0a84487fa5c0a98aaaa679fdff121494d3cOUT PancakeSwap: Router0 BNB0.00217795
0xf4675caa560031a3a587107ac529d626f72795649422f4db4685778881bca28cTransfer72139432021-05-07 12:29:04142 days 1 hr ago0x7a3d7e1f4a88fd3ddb788a53e0d228494c50e7c4 IN 0x5d9cc0a84487fa5c0a98aaaa679fdff121494d3c0.000786122479312 BNB0.000105
0xab029018e3ce27dc99db987c2a7c64762275255a91d3b299972c7e26bc7812e9Transfer72139132021-05-07 12:27:13142 days 1 hr ago0x7a3d7e1f4a88fd3ddb788a53e0d228494c50e7c4 IN 0x5d9cc0a84487fa5c0a98aaaa679fdff121494d3c0.001179183718969 BNB0.000105
0xdbda47f659f570a3d83ba5beed68e6c2d9fda66845b62acd0232261bac190600Approve72137262021-05-07 12:15:28142 days 1 hr ago0x5d9cc0a84487fa5c0a98aaaa679fdff121494d3cOUT SafeMars: SAFEMARS Token0 BNB0.00022274
[ Download CSV Export 
Latest 5 internal transactions
Parent Txn Hash Block From To Value
0x3393d0064a7256f3a18cb83d7f0a51c6a7ea7fd793c260a64a0189487abef44a96641812021-08-01 17:40:2955 days 20 hrs ago PancakeSwap: Router v20x5d9cc0a84487fa5c0a98aaaa679fdff121494d3c0.027466769414825286 BNB
0x3da7a754c2ed0f79fe1528dc63f5f85a8733043433846e04095182fc5e98b6b396641132021-08-01 17:37:0355 days 20 hrs ago PancakeSwap: Router v20x5d9cc0a84487fa5c0a98aaaa679fdff121494d3c0.008233582718833503 BNB
0x7c6dc3b63110555a82abe497039562f9f6816948f5e8dcfa24ca50b45c7f21f677467252021-05-26 13:54:39123 days 6 mins ago PancakeSwap: Router v20x5d9cc0a84487fa5c0a98aaaa679fdff121494d3c0.054639306568399606 BNB
0xea8883ed4c525b614fa733652e174a52ec19a05f650d7a5f3426e18c8a3af70a72141002021-05-07 12:37:19142 days 1 hr ago PancakeSwap: Router0x5d9cc0a84487fa5c0a98aaaa679fdff121494d3c0.031149929154045151 BNB
0xd04cf51898a8a637b9f6c26915287818a8307f34eb1673d3a93e4505a352e93172139572021-05-07 12:29:51142 days 1 hr ago PancakeSwap: Router0x5d9cc0a84487fa5c0a98aaaa679fdff121494d3c0.097515725445927585 BNB
[ Download CSV Export 
Loading

Contract Name:
0 BNB

Compiler Version
0

Optimization Enabled:
0 BNB

Other Settings:
-NA-
Block Transaction Gas Used Reward
Age Block Fee Address BC Fee Address Voting Power Jailed Incoming
Block Uncle Number Difficulty Gas Used Reward
Loading
Loading
Make sure to use the "Vote Down" button for any spammy posts, and the "Vote Up" for interesting conversations.